< < Back
Terminal Aerodrome Forecast


Current Version              Previous Versions:   1  2  3  4  5  6  7  8  9  

Terminal Aerodrome Forecast

373
FTUS44 KBMX 241137
TAFTCL
TAF
KTCL 241137Z 2412/2512 12002KT P6SM SKC
     FM241800 15005KT P6SM SCT040 PROB30 2421/2423 6SM -TSRA
      BKN040CB
     FM250100 13003KT P6SM SCT250=

Latest METAR

250
SAUS70 KWBC 241900
MTRTCL
METAR KTCL 241853Z 00000KT 10SM SCT044 33/24 A3016 RMK AO2 SLP209
T03330239


USA.gov is the U.S. government's official web portal to all federal, state and local government web resources and services.